Terminal Aerodrome Forecast
Issued by NWS Wilmington, NC

Home | Current Version | Previous Version | Text Only | Print | Product List | Glossary On
Versions: 1 2 3 4 5 6 7 8 9 10 11 12
709
FTUS42 KILM 190528
TAFILM
TAF
KILM 190528Z 1906/2006 22014G25KT P6SM FEW060
     FM190900 23014G25KT P6SM VCSH SCT020 BKN040
      TEMPO 1910/1914 4SM -SHRA BKN015
     FM191400 31013G23KT P6SM SCT040
     FM192100 32010KT P6SM SKC
     FM200200 36005KT P6SM SKC=

USA.gov is the U.S. government's official web portal to all federal, state and local government web resources and services.